Airfield :
LOGIN :

Register | Disclaimer

   EN    FR    IT 

 










Legend :    VFR   Marginal VFR   IFR   Intensive IFR   Very Intensive IFR
Visi :
Ceiling :
>= 8 km
>= 3000ft
5 to 8 km
1000 to 3000 ft
1500m to 5 km
500 to 1000 ft
800 to 1500m
200 to 500 ft
< 800m
< 200 ft
Symbols :   Thunderstorms  Fog  Heavy snow  Heavy precipitations  Wind > 20 kt
SIGMETs :     Misc.  Thunderstorms  Icing  Turbulence  Mountain Waves  Volcanic Ashes







- Airport Elevation : 215 ft
- IATA code : ABZ
- Download approach charts


EGPD - Aberdeen / Dyce

CURRENT METAR :
  • 241150Z 05009KT 1500 R16/1300 -DZ OVC003 13/12 Q1020

EXPIRED METARs :
  • 241120Z 04009KT 010V070 1800 BR OVC003 13/12 Q1020 TEMPO 1400 OVC002
  • 241050Z 05008KT 2000 -DZ OVC003 12/12 Q1021 TEMPO 1400 DZ BR BKN002
  • 241020Z 06007KT 020V100 2000 -DZ OVC003 12/12 Q1021 TEMPO 1400 BR DZ BKN002
  • 240950Z 05009KT 4000 -DZ OVC003 12/11 Q1021 RERA REDZ
  • 240920Z 05008KT 2500 RADZ OVC003 12/11 Q1021 REDZ TEMPO BKN002
  • 240850Z 05009KT 8000 -RA SCT004 OVC009 12/11 Q1022 TEMPO RA

TAF TAF EGPD
Valid from the 24 at 12:00 until the 25 at 12:00 UTC


241104Z 2412/2512 05012KT 6000 SCT004 BKN008
TEMPO 2412/2423 2000 RADZ BR BKN003
PROB30
TEMPO 2412/2422 0300 FG VV///
PROB30
TEMPO 2414/2418 +TSRA
BECMG 2415/2418 34009KT BKN010
TEMPO 2423/2508 4000 BR BKN004
PROB40
TEMPO 2508/2512 6000 BKN008
No reported NOTAMs for that airfield.
2 SIGMETs reported for the Scottish FIR (EGPX) :
 
Embedded thunderstorms and hail
EGPX SIGMET 04 VALID 241115/241400 EGRR
EGPX SCOTTISH FIR EMBD TSGR FCST WI N5500 W00530 - N5437 W00530 - N5437 W00545 - N5544 W00534 - N5541 W00354 - N5500 W00400 - N5500 W00530 TOP FL280 MOV NNE 20KT NC=
Embedded thunderstorms
EGPX SIGMET 03 VALID 241030/241400 EGRR
EGPX SCOTTISH FIR EMBD TS FCST WI N5637 W00321 - N5640 E00200 - N5503 E00056 - N5502 W00334 - N5637 W00321 TOP FL300 MOV NNE 20KT NC=



MET'MAP, your aeronautical weather chart ! - Copyright ORBIFLY December 2007 - Disclaimer

ORBIFLY MET'MAP TEAM :

Programming & Development : Alexandra Zaïnal
Concept & Development : Baudouin d'Aumeries
Co-Development & Prog : Marc-Olivier Méhu
Technical & hardware support : Manuel Goepfert

Contact : metmap@orbifly.com




SOURCES & CREDITS :

   NOAA